createdAt,value
2018-12-14T00:02:04.769Z,99634.25
2018-12-14T00:07:12.362Z,99630.00
2018-12-14T00:12:18.011Z,99628.88
2018-12-14T00:17:23.591Z,99625.02
2018-12-14T00:22:30.062Z,99612.78
2018-12-14T00:27:35.613Z,99632.75
2018-12-14T00:32:41.244Z,99625.13
2018-12-14T00:37:47.188Z,99631.75
2018-12-14T00:42:52.807Z,99641.58
2018-12-14T00:47:57.781Z,99645.03
2018-12-14T00:53:03.823Z,99644.11
2018-12-14T00:58:08.813Z,99656.23
2018-12-14T01:03:14.828Z,99661.55
2018-12-14T01:08:20.087Z,99664.65
2018-12-14T01:13:25.365Z,99658.70
2018-12-14T01:18:30.691Z,99652.84
2018-12-14T01:23:35.663Z,99657.81
2018-12-14T01:28:40.565Z,99658.08
2018-12-14T01:33:46.257Z,99658.58
2018-12-14T01:38:51.181Z,99656.44
2018-12-14T01:43:56.154Z,99662.22
2018-12-14T01:49:01.905Z,99652.05
2018-12-14T01:54:07.696Z,99653.10
2018-12-14T01:59:12.612Z,99649.28
2018-12-14T02:04:17.855Z,99655.31
2018-12-14T02:09:22.890Z,99656.50
2018-12-14T02:14:28.286Z,99648.98
2018-12-14T02:19:34.031Z,99645.43
2018-12-14T02:24:40.083Z,99640.66
2018-12-14T02:29:45.074Z,99634.65
2018-12-14T02:34:50.521Z,99636.01
2018-12-14T02:39:55.488Z,99642.92
2018-12-14T02:45:00.767Z,99636.67
2018-12-14T02:50:08.347Z,99633.95
2018-12-14T02:55:13.613Z,99632.69
2018-12-14T03:00:18.542Z,99634.74
2018-12-14T03:05:23.615Z,99636.13
2018-12-14T03:10:28.728Z,99614.90
2018-12-14T03:15:33.618Z,99629.70
2018-12-14T03:20:38.720Z,99627.81
2018-12-14T03:25:44.049Z,99624.69
2018-12-14T03:30:48.983Z,99630.20
2018-12-14T03:35:53.994Z,99623.12
2018-12-14T03:40:58.957Z,99624.98
2018-12-14T03:46:03.974Z,99611.19
2018-12-14T03:51:08.989Z,99633.95
2018-12-14T03:56:15.179Z,99632.69
2018-12-14T04:01:20.170Z,99634.55
2018-12-14T04:06:25.146Z,99643.74
2018-12-14T04:11:32.207Z,99643.02
2018-12-14T04:16:37.075Z,99645.73
2018-12-14T04:21:42.006Z,99650.55
2018-12-14T04:26:47.607Z,99654.00
2018-12-14T04:31:52.726Z,99656.31
2018-12-14T04:36:58.305Z,99655.69
2018-12-14T04:42:04.225Z,99659.22
2018-12-14T04:47:09.378Z,99659.44
2018-12-14T04:52:14.417Z,99659.09
2018-12-14T04:57:20.459Z,99652.06
2018-12-14T05:02:25.255Z,99654.14
2018-12-14T05:07:30.246Z,99653.24
2018-12-14T05:12:35.291Z,99655.45
2018-12-14T05:17:40.287Z,99647.79
2018-12-14T05:22:45.293Z,99648.44
2018-12-14T05:27:50.232Z,99658.02
2018-12-14T05:32:55.115Z,99651.91
2018-12-14T05:38:00.005Z,99665.77
2018-12-14T05:43:05.095Z,99664.80
2018-12-14T05:48:10.749Z,99667.16
2018-12-14T05:53:15.971Z,99673.16
2018-12-14T05:58:21.707Z,99668.13
2018-12-14T06:03:26.714Z,99675.66
2018-12-14T06:08:32.050Z,99678.73
2018-12-14T06:13:37.014Z,99683.16
2018-12-14T06:18:42.007Z,99685.22
2018-12-14T06:23:46.974Z,99687.89
2018-12-14T06:28:51.893Z,99687.79
2018-12-14T06:33:56.837Z,99693.77
2018-12-14T06:39:01.993Z,99695.77
2018-12-14T06:44:07.246Z,99700.21
2018-12-14T06:49:12.219Z,99708.91
2018-12-14T06:59:28.816Z,99720.66
2018-12-14T07:04:34.854Z,99720.02
2018-12-14T07:09:40.180Z,99719.80
2018-12-14T07:14:45.726Z,99722.24
2018-12-14T07:19:50.607Z,99721.91
2018-12-14T07:24:55.533Z,99728.41
2018-12-14T07:30:08.693Z,99732.80
2018-12-14T07:35:13.650Z,99742.08
2018-12-14T07:40:18.711Z,99745.69
2018-12-14T07:45:23.909Z,99744.03
2018-12-14T07:50:29.110Z,99733.73
2018-12-14T07:55:34.032Z,99745.81
2018-12-14T08:00:39.617Z,99752.14
2018-12-14T08:05:44.581Z,99765.75
2018-12-14T08:10:49.580Z,99763.75
2018-12-14T08:15:54.733Z,99767.81
2018-12-14T08:20:59.688Z,99765.55
2018-12-14T08:26:04.859Z,99775.87
2018-12-14T08:31:10.783Z,99785.06
2018-12-14T08:36:16.017Z,99786.83
2018-12-14T08:41:21.064Z,99799.79
2018-12-14T08:46:26.624Z,99805.75
2018-12-14T08:51:31.862Z,99798.80
2018-12-14T08:56:36.826Z,99803.09
2018-12-14T09:01:43.059Z,99803.92
2018-12-14T09:06:47.984Z,99805.06
2018-12-14T09:11:52.940Z,99810.13
2018-12-14T09:16:57.941Z,99820.87
2018-12-14T09:22:03.733Z,99815.56
2018-12-14T09:27:09.323Z,99820.56
2018-12-14T09:32:14.281Z,99819.42
2018-12-14T09:37:19.204Z,99821.45
2018-12-14T09:42:24.119Z,99820.47
2018-12-14T09:47:29.376Z,99821.13
2018-12-14T09:52:34.297Z,99820.80
2018-12-14T09:57:39.914Z,99820.06
2018-12-14T10:02:45.642Z,99826.92
2018-12-14T10:07:50.632Z,99822.30
2018-12-14T10:12:55.541Z,99816.13
2018-12-14T10:18:00.459Z,99818.25
2018-12-14T10:23:06.075Z,99813.62
2018-12-14T10:28:11.047Z,99821.34
2018-12-14T10:33:17.019Z,99813.09
2018-12-14T10:38:22.363Z,99815.34
2018-12-14T10:43:27.283Z,99804.52
2018-12-14T10:48:32.619Z,99800.60
2018-12-14T10:53:38.617Z,99801.63
2018-12-14T11:04:54.050Z,99816.48
2018-12-14T11:09:58.988Z,99809.44
2018-12-14T11:15:06.390Z,99813.42
2018-12-14T11:20:12.301Z,99806.73
2018-12-14T11:25:17.292Z,99810.70
2018-12-14T11:30:22.202Z,99816.62
2018-12-14T11:35:27.175Z,99818.14
2018-12-14T11:40:32.222Z,99823.58
2018-12-14T11:45:37.423Z,99822.92
2018-12-14T11:50:42.548Z,99823.89
2018-12-14T11:55:47.421Z,99827.08
2018-12-14T12:00:52.386Z,99827.77
2018-12-14T12:05:59.902Z,99824.52
2018-12-14T12:11:05.852Z,99826.03
2018-12-14T12:16:10.824Z,99821.59
2018-12-14T12:21:16.133Z,99823.92
2018-12-14T12:26:21.754Z,99830.16
2018-12-14T12:31:26.991Z,99825.20
2018-12-14T12:36:32.547Z,99825.45
2018-12-14T12:41:38.435Z,99823.48
2018-12-14T12:46:43.747Z,99826.37
2018-12-14T12:51:49.103Z,99830.19
2018-12-14T12:56:54.195Z,99832.34
2018-12-14T13:01:59.348Z,99829.00
2018-12-14T13:12:33.320Z,99824.25
2018-12-14T13:17:39.348Z,99833.84
2018-12-14T13:22:44.326Z,99842.33
2018-12-14T13:27:49.460Z,99841.59
2018-12-14T13:32:54.737Z,99842.13
2018-12-14T13:37:59.751Z,99842.84
2018-12-14T13:43:04.811Z,99846.70
2018-12-14T13:48:09.821Z,99843.05
2018-12-14T13:53:14.775Z,99838.27
2018-12-14T13:58:20.831Z,99840.94
2018-12-14T14:03:25.924Z,99840.06
2018-12-14T14:08:31.602Z,99838.49
2018-12-14T14:13:36.927Z,99840.39
2018-12-14T14:18:41.834Z,99844.80
2018-12-14T14:23:46.747Z,99851.53
2018-12-14T14:28:51.840Z,99851.34
2018-12-14T14:33:56.886Z,99853.75
2018-12-14T14:39:02.750Z,99860.05
2018-12-14T14:44:10.114Z,99862.84
2018-12-14T14:49:15.617Z,99872.28
2018-12-14T14:54:20.829Z,99879.63
2018-12-14T14:59:28.268Z,99880.84
2018-12-14T15:04:33.400Z,99889.89
2018-12-14T15:09:38.959Z,99892.96
2018-12-14T15:14:44.803Z,99889.28
2018-12-14T15:19:50.466Z,99892.62
2018-12-14T15:24:56.265Z,99896.61
2018-12-14T15:30:01.681Z,99898.62
2018-12-14T15:35:08.269Z,99902.84
2018-12-14T15:40:15.339Z,99905.25
2018-12-14T15:45:21.140Z,99911.23
2018-12-14T15:50:26.592Z,99910.83
2018-12-14T15:55:31.575Z,99911.88
2018-12-14T16:00:38.524Z,99916.33
2018-12-14T16:05:46.431Z,99923.89
2018-12-14T16:10:51.686Z,99924.66
2018-12-14T16:15:56.751Z,99924.73
2018-12-14T16:21:02.558Z,99929.21
2018-12-14T16:26:07.925Z,99937.56
2018-12-14T16:31:13.578Z,99934.27
2018-12-14T16:36:18.576Z,99930.50
2018-12-14T16:41:23.876Z,99928.88
2018-12-14T16:46:28.888Z,99932.75
2018-12-14T16:51:33.983Z,99940.55
2018-12-14T16:56:38.990Z,99940.33
2018-12-14T17:01:44.612Z,99942.83
2018-12-14T17:06:50.448Z,99941.59
2018-12-14T17:11:56.708Z,99943.31
2018-12-14T17:17:02.833Z,99930.63
2018-12-14T17:22:07.952Z,99942.00
2018-12-14T17:27:14.087Z,99938.70
2018-12-14T17:37:31.092Z,99943.39
2018-12-14T17:42:38.425Z,99942.97
2018-12-14T17:47:43.433Z,99945.98
2018-12-14T17:52:49.575Z,99942.42
2018-12-14T17:57:54.715Z,99947.61
2018-12-14T18:02:59.747Z,99946.68
2018-12-14T18:08:06.808Z,99944.94
2018-12-14T18:13:13.413Z,99951.13
2018-12-14T18:18:18.474Z,99947.99
2018-12-14T18:23:24.285Z,99962.14
2018-12-14T18:28:29.789Z,99958.92
2018-12-14T18:33:36.077Z,99955.91
2018-12-14T18:38:41.856Z,99966.64
2018-12-14T18:43:48.346Z,99968.50
2018-12-14T18:48:54.265Z,99971.78
2018-12-14T18:54:00.950Z,99984.26
2018-12-14T18:59:09.119Z,99984.09
2018-12-14T19:04:15.714Z,99988.70
2018-12-14T19:14:32.623Z,100003.15
2018-12-14T19:19:38.052Z,100013.06
2018-12-14T19:24:44.062Z,100006.89
2018-12-14T19:29:49.634Z,100014.63
2018-12-14T19:34:57.354Z,100008.91
2018-12-14T19:40:03.656Z,100013.59
2018-12-14T19:45:10.667Z,100020.05
2018-12-14T19:50:17.227Z,100017.27
2018-12-14T19:55:31.922Z,100017.93
2018-12-14T20:00:37.749Z,100023.57
2018-12-14T20:05:44.714Z,100029.17
2018-12-14T20:10:49.992Z,100032.80
2018-12-14T20:15:57.658Z,100033.28
2018-12-14T20:21:03.736Z,100031.65
2018-12-14T20:26:11.768Z,100036.33
2018-12-14T20:31:21.387Z,100041.30
2018-12-14T20:36:26.853Z,100039.66
2018-12-14T20:41:33.040Z,100042.22
2018-12-14T20:46:39.994Z,100025.31
2018-12-14T20:51:45.616Z,100043.71
2018-12-14T20:56:52.540Z,100048.05
2018-12-14T21:02:02.145Z,100041.39
2018-12-14T21:07:07.645Z,100049.49
2018-12-14T21:12:13.089Z,100042.53
2018-12-14T21:17:19.276Z,100045.97
2018-12-14T21:22:25.537Z,100039.07
2018-12-14T21:27:31.409Z,100034.95
2018-12-14T21:32:37.125Z,100044.94
2018-12-14T21:37:42.817Z,100046.26
2018-12-14T21:42:48.518Z,100044.58
2018-12-14T21:47:53.483Z,100046.05
2018-12-14T21:52:58.775Z,100055.91
2018-12-14T21:58:05.264Z,100056.06
2018-12-14T22:03:10.494Z,100060.06
2018-12-14T22:08:15.711Z,100062.86
2018-12-14T22:13:21.141Z,100053.80
2018-12-14T22:18:26.306Z,100056.56
2018-12-14T22:23:32.275Z,100064.13
2018-12-14T22:28:39.715Z,100070.38
2018-12-14T22:33:45.736Z,100069.41
2018-12-14T22:38:50.713Z,100072.27
2018-12-14T22:43:56.022Z,100065.69
2018-12-14T22:49:01.016Z,100062.03
2018-12-14T22:54:06.418Z,100051.73
2018-12-14T22:59:11.680Z,100053.80
2018-12-14T23:04:16.711Z,100053.41
2018-12-14T23:09:23.131Z,100056.92
2018-12-14T23:19:38.850Z,100060.80
2018-12-14T23:24:44.493Z,100053.52
2018-12-14T23:29:49.537Z,100054.53
2018-12-14T23:34:55.258Z,100056.91
2018-12-14T23:40:00.278Z,100059.06
2018-12-14T23:45:06.285Z,100063.34
2018-12-14T23:50:11.266Z,100060.89
